createdAt,value
2019-03-20T00:00:32.653Z,7.20
2019-03-20T00:01:43.191Z,7.00
2019-03-20T00:02:33.627Z,6.90
2019-03-20T00:03:32.611Z,7.10
2019-03-20T00:04:32.643Z,6.50
2019-03-20T00:05:32.740Z,6.70
2019-03-20T00:06:32.580Z,7.20
2019-03-20T00:07:32.598Z,7.00
2019-03-20T00:08:32.567Z,6.70
2019-03-20T00:09:32.557Z,6.20
2019-03-20T00:10:32.539Z,6.00
2019-03-20T00:11:32.526Z,6.50
2019-03-20T00:12:32.517Z,6.80
2019-03-20T00:13:32.505Z,7.30
2019-03-20T00:14:32.532Z,6.70
2019-03-20T00:15:32.495Z,6.70
2019-03-20T00:16:32.480Z,6.60
2019-03-20T00:17:32.461Z,6.80
2019-03-20T00:18:32.451Z,6.50
2019-03-20T00:19:32.442Z,6.70
2019-03-20T00:20:32.430Z,6.80
2019-03-20T00:21:32.421Z,6.30
2019-03-20T00:22:32.419Z,6.40
2019-03-20T00:23:32.402Z,6.70
2019-03-20T00:24:32.386Z,5.80
2019-03-20T00:25:32.392Z,6.50
2019-03-20T00:26:32.375Z,6.70
2019-03-20T00:27:32.359Z,6.70
2019-03-20T00:28:32.348Z,6.70
2019-03-20T00:29:32.365Z,6.70
2019-03-20T00:30:32.327Z,6.50
2019-03-20T00:31:32.315Z,6.30
2019-03-20T00:32:32.304Z,6.20
2019-03-20T00:33:32.298Z,6.60
2019-03-20T00:34:32.280Z,6.70
2019-03-20T00:35:32.288Z,6.10
2019-03-20T00:36:32.325Z,6.70
2019-03-20T00:37:32.249Z,6.60
2019-03-20T00:38:32.236Z,6.80
2019-03-20T00:39:32.225Z,7.00
2019-03-20T00:40:32.227Z,7.00
2019-03-20T00:41:32.211Z,6.50
2019-03-20T00:42:32.199Z,6.70
2019-03-20T00:43:32.202Z,6.90
2019-03-20T00:44:32.179Z,6.50
2019-03-20T00:45:32.170Z,6.80
2019-03-20T00:46:32.157Z,6.60
2019-03-20T00:47:32.140Z,6.60
2019-03-20T00:48:32.138Z,6.60
2019-03-20T00:49:32.121Z,6.40
2019-03-20T00:50:32.121Z,6.60
2019-03-20T00:51:32.316Z,6.50
2019-03-20T00:52:32.099Z,7.00
2019-03-20T00:53:32.117Z,6.50
2019-03-20T00:54:32.096Z,6.50
2019-03-20T00:55:32.066Z,6.00
2019-03-20T00:56:32.047Z,7.00
2019-03-20T00:57:32.039Z,7.30
2019-03-20T00:58:32.023Z,7.00
2019-03-20T00:59:32.021Z,6.10
2019-03-20T01:00:32.015Z,6.30
2019-03-20T01:01:32.001Z,6.80
2019-03-20T01:02:31.992Z,7.30
2019-03-20T01:03:31.975Z,7.20
2019-03-20T01:04:31.960Z,7.90
2019-03-20T01:05:31.962Z,7.40
2019-03-20T01:06:31.938Z,7.90
2019-03-20T01:07:31.932Z,8.60
2019-03-20T01:08:31.922Z,7.90
2019-03-20T01:09:31.914Z,7.20
2019-03-20T01:10:31.919Z,6.70
2019-03-20T01:11:31.890Z,7.40
2019-03-20T01:12:31.877Z,7.60
2019-03-20T01:13:31.964Z,7.10
2019-03-20T01:14:31.856Z,6.80
2019-03-20T01:15:31.856Z,7.00
2019-03-20T01:16:31.834Z,6.70
2019-03-20T01:17:31.828Z,7.20
2019-03-20T01:18:31.813Z,6.90
2019-03-20T01:19:31.811Z,6.40
2019-03-20T01:20:31.817Z,6.60
2019-03-20T01:21:31.807Z,6.10
2019-03-20T01:22:31.796Z,6.20
2019-03-20T01:23:31.759Z,6.60
2019-03-20T01:24:31.776Z,6.60
2019-03-20T01:25:31.764Z,5.90
2019-03-20T01:26:31.745Z,6.00
2019-03-20T01:27:31.729Z,6.20
2019-03-20T01:28:31.703Z,5.80
2019-03-20T01:29:31.773Z,5.70
2019-03-20T01:30:31.693Z,5.90
2019-03-20T01:31:31.708Z,6.10
2019-03-20T01:32:31.661Z,5.90
2019-03-20T01:33:31.652Z,6.10
2019-03-20T01:34:31.652Z,5.70
2019-03-20T01:35:31.784Z,5.50
2019-03-20T01:36:31.625Z,6.00
2019-03-20T01:37:31.609Z,5.70
2019-03-20T01:38:31.597Z,5.70
2019-03-20T01:39:31.588Z,5.90
2019-03-20T01:40:31.581Z,5.70
2019-03-20T01:41:37.909Z,6.20
2019-03-20T01:42:32.571Z,5.60
2019-03-20T01:43:31.569Z,5.90
2019-03-20T01:44:31.540Z,5.70
2019-03-20T01:45:31.532Z,5.30
2019-03-20T01:46:31.519Z,6.10
2019-03-20T01:47:31.510Z,5.80
2019-03-20T01:48:31.494Z,5.50
2019-03-20T01:49:31.483Z,5.80
2019-03-20T01:50:31.473Z,5.50
2019-03-20T01:51:31.460Z,5.90
2019-03-20T01:52:31.449Z,6.00
2019-03-20T01:53:31.440Z,5.70
2019-03-20T01:54:31.426Z,6.10
2019-03-20T01:55:31.420Z,5.90
2019-03-20T01:56:31.429Z,6.70
2019-03-20T01:57:31.406Z,6.00
2019-03-20T01:58:31.395Z,5.60
2019-03-20T01:59:31.371Z,6.50
2019-03-20T02:00:31.388Z,5.70
2019-03-20T02:01:31.365Z,5.60
2019-03-20T02:02:31.358Z,6.40
2019-03-20T02:03:31.356Z,5.60
2019-03-20T02:04:31.425Z,5.60
2019-03-20T02:05:36.388Z,5.90
2019-03-20T02:06:32.317Z,6.10
2019-03-20T02:07:31.287Z,5.70
2019-03-20T02:08:31.281Z,5.60
2019-03-20T02:09:31.276Z,5.80
2019-03-20T02:10:31.265Z,5.50
2019-03-20T02:11:31.287Z,6.00
2019-03-20T02:12:31.238Z,5.50
2019-03-20T02:13:31.230Z,6.30
2019-03-20T02:14:31.215Z,5.80
2019-03-20T02:15:38.667Z,5.70
2019-03-20T02:16:32.203Z,6.50
2019-03-20T02:17:31.181Z,6.20
2019-03-20T02:18:31.172Z,6.00
2019-03-20T02:19:31.258Z,5.70
2019-03-20T02:20:31.202Z,5.70
2019-03-20T02:21:31.176Z,5.70
2019-03-20T02:22:31.157Z,5.40
2019-03-20T02:23:31.131Z,6.00
2019-03-20T02:24:31.117Z,5.80
2019-03-20T02:25:32.447Z,6.00
2019-03-20T02:26:31.226Z,6.30
2019-03-20T02:27:31.078Z,5.80
2019-03-20T02:28:31.068Z,5.90
2019-03-20T02:29:31.075Z,6.10
2019-03-20T02:30:31.050Z,6.00
2019-03-20T02:31:31.050Z,5.40
2019-03-20T02:32:31.021Z,6.10
2019-03-20T02:33:31.020Z,6.60
2019-03-20T02:34:31.010Z,6.00
2019-03-20T02:35:30.991Z,6.00
2019-03-20T02:36:30.991Z,5.70
2019-03-20T02:37:30.980Z,6.70
2019-03-20T02:38:30.966Z,5.80
2019-03-20T02:39:30.949Z,5.80
2019-03-20T02:40:30.939Z,5.50
2019-03-20T02:41:30.967Z,6.30
2019-03-20T02:42:30.914Z,5.60
2019-03-20T02:43:30.916Z,5.90
2019-03-20T02:44:30.894Z,5.50
2019-03-20T02:45:30.888Z,6.10
2019-03-20T02:46:30.881Z,5.30
2019-03-20T02:47:30.862Z,6.20
2019-03-20T02:48:30.864Z,5.60
2019-03-20T02:49:30.841Z,5.70
2019-03-20T02:50:30.831Z,6.10
2019-03-20T02:51:30.844Z,5.60
2019-03-20T02:52:30.812Z,6.40
2019-03-20T02:53:30.802Z,5.30
2019-03-20T02:54:30.798Z,6.10
2019-03-20T02:55:30.797Z,5.50
2019-03-20T02:56:30.780Z,5.30
2019-03-20T02:57:30.777Z,5.80
2019-03-20T02:58:30.774Z,5.50
2019-03-20T02:59:30.750Z,5.80
2019-03-20T03:00:30.730Z,5.60
2019-03-20T03:01:30.722Z,6.00
2019-03-20T03:02:30.704Z,5.60
2019-03-20T03:03:30.706Z,5.80
2019-03-20T03:04:30.695Z,5.20
2019-03-20T03:05:30.714Z,5.70
2019-03-20T03:06:30.695Z,5.40
2019-03-20T03:07:30.650Z,5.80
2019-03-20T03:08:30.638Z,6.00
2019-03-20T03:09:30.636Z,6.20
2019-03-20T03:10:30.755Z,5.30
2019-03-20T03:11:30.614Z,6.30
2019-03-20T03:12:30.601Z,5.70
2019-03-20T03:13:30.628Z,5.30
2019-03-20T03:14:30.605Z,5.50
2019-03-20T03:15:30.591Z,5.60
2019-03-20T03:16:30.553Z,5.90
2019-03-20T03:17:30.647Z,5.70
2019-03-20T03:18:30.545Z,5.40
2019-03-20T03:19:30.522Z,5.70
2019-03-20T03:20:30.516Z,5.10
2019-03-20T03:21:30.509Z,5.80
2019-03-20T03:22:30.490Z,5.20
2019-03-20T03:23:30.511Z,5.70
2019-03-20T03:24:30.481Z,5.60
2019-03-20T03:25:30.461Z,5.60
2019-03-20T03:26:30.455Z,5.80
2019-03-20T03:27:30.439Z,5.50
2019-03-20T03:28:30.426Z,5.90
2019-03-20T03:29:30.425Z,5.90
2019-03-20T03:30:30.419Z,5.70
2019-03-20T03:31:30.413Z,5.40
2019-03-20T03:32:30.447Z,5.40
2019-03-20T03:33:30.384Z,5.10
2019-03-20T03:34:30.368Z,6.40
2019-03-20T03:35:30.724Z,6.30
2019-03-20T03:36:30.346Z,6.00
2019-03-20T03:37:30.347Z,5.90
2019-03-20T03:38:30.334Z,5.50
2019-03-20T03:39:30.428Z,5.60
2019-03-20T03:40:30.305Z,5.90
2019-03-20T03:41:30.287Z,5.60
2019-03-20T03:42:30.280Z,5.50
2019-03-20T03:43:30.268Z,5.40
2019-03-20T03:44:30.261Z,5.20
2019-03-20T03:45:30.251Z,5.70
2019-03-20T03:46:30.245Z,5.40
2019-03-20T03:47:30.236Z,5.30
2019-03-20T03:48:30.220Z,5.90
2019-03-20T03:49:30.222Z,5.50
2019-03-20T03:50:30.194Z,5.60
2019-03-20T03:51:30.183Z,5.30
2019-03-20T03:52:30.180Z,5.80
2019-03-20T03:53:30.170Z,5.90
2019-03-20T03:54:30.151Z,5.30
2019-03-20T03:55:30.161Z,6.00
2019-03-20T03:56:30.136Z,5.90
2019-03-20T03:57:30.128Z,5.40
2019-03-20T03:58:32.779Z,5.70
2019-03-20T03:59:30.104Z,5.40
2019-03-20T04:00:30.088Z,5.80
2019-03-20T04:01:30.207Z,5.90
2019-03-20T04:02:30.075Z,5.70
2019-03-20T04:03:30.057Z,5.50
2019-03-20T04:04:30.042Z,5.80
2019-03-20T04:05:30.040Z,5.80
2019-03-20T04:06:35.373Z,5.80
2019-03-20T04:07:31.021Z,6.20
2019-03-20T04:08:30.002Z,5.40
2019-03-20T04:09:30.037Z,5.70
2019-03-20T04:10:29.980Z,6.30
2019-03-20T04:11:29.970Z,5.80
2019-03-20T04:12:29.963Z,5.80
2019-03-20T04:13:29.960Z,5.60
2019-03-20T04:14:29.945Z,5.60
2019-03-20T04:15:29.927Z,5.80
2019-03-20T04:16:29.942Z,5.60
2019-03-20T04:17:29.924Z,5.70
2019-03-20T04:18:29.900Z,6.00
2019-03-20T04:19:29.892Z,5.70
2019-03-20T04:20:29.873Z,5.70
2019-03-20T04:21:29.866Z,5.70
2019-03-20T04:22:29.860Z,5.90
2019-03-20T04:23:29.850Z,6.00
2019-03-20T04:24:29.847Z,5.60
2019-03-20T04:25:29.819Z,6.00
2019-03-20T04:26:29.812Z,6.10
2019-03-20T04:27:29.811Z,5.40
2019-03-20T04:28:29.800Z,5.80
2019-03-20T04:29:29.775Z,5.60
2019-03-20T04:30:29.768Z,5.70
2019-03-20T04:31:29.772Z,5.90
2019-03-20T04:32:29.815Z,5.90
2019-03-20T04:33:29.832Z,5.70
2019-03-20T04:34:29.729Z,5.80
2019-03-20T04:35:29.740Z,5.80
2019-03-20T04:36:29.708Z,5.60
2019-03-20T04:37:29.695Z,5.60
2019-03-20T04:38:29.773Z,5.70
2019-03-20T04:39:29.692Z,5.40
2019-03-20T04:40:29.665Z,5.60
2019-03-20T04:41:29.659Z,5.10
2019-03-20T04:42:29.646Z,5.20
2019-03-20T04:43:29.661Z,5.10
2019-03-20T04:44:29.646Z,5.90
2019-03-20T04:45:29.605Z,5.60
2019-03-20T04:46:29.606Z,5.40
2019-03-20T04:47:29.583Z,5.40
2019-03-20T04:48:29.582Z,5.40
2019-03-20T04:49:29.613Z,5.40
2019-03-20T04:50:29.564Z,5.80
2019-03-20T04:51:29.544Z,5.70
2019-03-20T04:52:29.531Z,5.40
2019-03-20T04:53:29.535Z,5.70
2019-03-20T04:54:29.509Z,5.40
2019-03-20T04:55:29.535Z,5.70
2019-03-20T04:56:29.489Z,5.50
2019-03-20T04:57:29.484Z,5.80
2019-03-20T04:58:29.482Z,5.60
2019-03-20T04:59:29.470Z,5.20
2019-03-20T05:00:29.653Z,5.70
2019-03-20T05:01:29.437Z,6.40
2019-03-20T05:02:29.427Z,5.90
2019-03-20T05:03:29.425Z,5.60
2019-03-20T05:04:29.408Z,5.40
2019-03-20T05:05:29.396Z,6.10
2019-03-20T05:06:29.393Z,5.80
2019-03-20T05:07:29.414Z,5.80
2019-03-20T05:08:29.371Z,4.60
2019-03-20T05:09:29.353Z,6.20
2019-03-20T05:10:29.338Z,5.60
2019-03-20T05:11:29.358Z,6.10
2019-03-20T05:12:29.329Z,5.20
2019-03-20T05:13:29.315Z,5.40
2019-03-20T05:14:29.298Z,5.10
2019-03-20T05:15:29.289Z,5.60
2019-03-20T05:16:29.284Z,5.20
2019-03-20T05:17:29.265Z,5.60
2019-03-20T05:18:29.261Z,5.90
2019-03-20T05:19:29.244Z,5.30
2019-03-20T05:20:29.230Z,5.50
2019-03-20T05:21:29.224Z,5.90
2019-03-20T05:22:29.231Z,5.60
2019-03-20T05:23:29.209Z,5.70
2019-03-20T05:24:29.200Z,5.90
2019-03-20T05:25:29.187Z,6.50
2019-03-20T05:26:29.227Z,5.80
2019-03-20T05:27:29.223Z,5.90
2019-03-20T05:28:29.161Z,5.70
2019-03-20T05:29:29.139Z,5.90
2019-03-20T05:30:29.149Z,6.30
2019-03-20T05:31:29.121Z,6.00
2019-03-20T05:32:29.121Z,6.10
2019-03-20T05:33:29.116Z,6.00
2019-03-20T05:34:29.101Z,5.40
2019-03-20T05:35:29.082Z,6.10
2019-03-20T05:36:29.060Z,6.00
2019-03-20T05:37:29.151Z,5.90
2019-03-20T05:38:29.056Z,5.90
2019-03-20T05:39:29.050Z,5.50
2019-03-20T05:40:29.022Z,5.60
2019-03-20T05:41:29.016Z,5.70
2019-03-20T05:42:28.998Z,5.90
2019-03-20T05:43:29.000Z,6.30
2019-03-20T05:44:29.013Z,5.30
2019-03-20T05:45:28.970Z,5.30
2019-03-20T05:46:28.953Z,5.50
2019-03-20T05:47:28.972Z,5.60
2019-03-20T05:48:28.964Z,5.70
2019-03-20T05:49:28.994Z,5.80
2019-03-20T05:50:29.022Z,6.10
2019-03-20T05:51:28.942Z,5.60
2019-03-20T05:52:28.903Z,5.90
2019-03-20T05:53:28.936Z,5.70
2019-03-20T05:54:28.966Z,5.30
2019-03-20T05:55:28.907Z,5.00
2019-03-20T05:56:28.860Z,5.50
2019-03-20T05:57:28.839Z,5.70
2019-03-20T05:58:28.830Z,5.20
2019-03-20T05:59:29.106Z,5.50
2019-03-20T06:00:28.818Z,5.80
2019-03-20T06:01:28.815Z,5.10
2019-03-20T06:02:28.814Z,5.40
2019-03-20T06:03:28.809Z,5.30
2019-03-20T06:04:28.778Z,5.70
2019-03-20T06:05:28.833Z,5.70
2019-03-20T06:06:28.744Z,5.60
2019-03-20T06:07:28.739Z,5.40
2019-03-20T06:08:31.194Z,5.60
2019-03-20T06:09:28.793Z,4.90
2019-03-20T06:10:28.708Z,5.40
2019-03-20T06:11:28.713Z,5.40
2019-03-20T06:12:28.692Z,5.10
2019-03-20T06:13:28.674Z,5.80
2019-03-20T06:14:28.835Z,5.50
2019-03-20T06:15:28.672Z,5.40
2019-03-20T06:16:28.640Z,5.10
2019-03-20T06:17:28.631Z,5.40
2019-03-20T06:18:28.625Z,5.40
2019-03-20T06:19:28.621Z,4.80
2019-03-20T06:20:28.604Z,5.80
2019-03-20T06:21:28.623Z,5.60
2019-03-20T06:22:28.595Z,5.40
2019-03-20T06:23:28.564Z,5.30
2019-03-20T06:24:28.569Z,5.30
2019-03-20T06:25:28.569Z,5.40
2019-03-20T06:26:28.666Z,5.30
2019-03-20T06:27:28.528Z,5.00
2019-03-20T06:28:28.529Z,5.60
2019-03-20T06:29:28.557Z,5.50
2019-03-20T06:30:28.487Z,5.50
2019-03-20T06:31:28.479Z,5.00
2019-03-20T06:32:28.499Z,5.20
2019-03-20T06:33:28.453Z,5.20
2019-03-20T06:34:28.447Z,5.30
2019-03-20T06:35:28.440Z,5.30
2019-03-20T06:36:28.497Z,4.80
2019-03-20T06:37:32.477Z,5.10
2019-03-20T06:38:28.527Z,4.90
2019-03-20T06:39:28.528Z,5.10
2019-03-20T06:40:28.381Z,4.80
2019-03-20T06:41:28.371Z,5.20
2019-03-20T06:42:28.368Z,5.40
2019-03-20T06:43:28.547Z,5.20
2019-03-20T06:44:28.410Z,5.00
2019-03-20T06:45:28.493Z,5.00
2019-03-20T06:46:28.375Z,5.00
2019-03-20T06:47:28.304Z,5.60
2019-03-20T06:48:28.329Z,5.10
2019-03-20T06:49:28.304Z,5.30
2019-03-20T06:50:28.967Z,5.30
2019-03-20T06:51:28.311Z,6.10
2019-03-20T06:52:28.299Z,5.30
2019-03-20T06:53:28.254Z,4.80
2019-03-20T06:54:28.251Z,5.30
2019-03-20T06:55:28.322Z,5.90
2019-03-20T06:56:28.211Z,5.20
2019-03-20T06:57:28.200Z,5.60
2019-03-20T06:58:28.193Z,5.90
2019-03-20T06:59:28.178Z,5.70
2019-03-20T07:00:28.178Z,5.30
2019-03-20T07:01:28.229Z,5.20
2019-03-20T07:02:28.166Z,5.60
2019-03-20T07:03:28.138Z,5.70
2019-03-20T07:04:28.128Z,5.30
2019-03-20T07:05:28.198Z,5.10
2019-03-20T07:06:28.105Z,5.00
2019-03-20T07:07:28.124Z,5.60
2019-03-20T07:08:28.084Z,4.90
2019-03-20T07:09:28.070Z,5.60
2019-03-20T07:10:28.070Z,5.40
2019-03-20T07:11:28.073Z,5.20
2019-03-20T07:12:28.057Z,5.70
2019-03-20T07:13:28.035Z,5.00
2019-03-20T07:14:28.061Z,4.80
2019-03-20T07:15:28.041Z,5.40
2019-03-20T07:16:27.995Z,5.20
2019-03-20T07:17:27.986Z,6.00
2019-03-20T07:18:27.976Z,4.90
2019-03-20T07:19:27.970Z,5.00
2019-03-20T07:20:28.021Z,5.30
2019-03-20T07:21:27.946Z,5.30
2019-03-20T07:22:27.936Z,5.30
2019-03-20T07:23:27.923Z,5.70
2019-03-20T07:24:27.913Z,4.80
2019-03-20T07:25:27.906Z,5.20
2019-03-20T07:26:28.777Z,5.60
2019-03-20T07:27:28.018Z,5.30
2019-03-20T07:28:27.881Z,5.00
2019-03-20T07:29:27.868Z,5.00
2019-03-20T07:30:27.848Z,5.50
2019-03-20T07:31:27.860Z,5.50
2019-03-20T07:32:29.996Z,5.60
2019-03-20T07:33:27.827Z,4.70
2019-03-20T07:34:27.806Z,4.90
2019-03-20T07:35:27.794Z,5.90
2019-03-20T07:36:27.795Z,5.50
2019-03-20T07:37:27.807Z,5.50
2019-03-20T07:38:27.773Z,4.90
2019-03-20T07:39:27.757Z,5.30
2019-03-20T07:40:27.775Z,5.40
2019-03-20T07:41:27.735Z,4.90
2019-03-20T07:42:27.730Z,5.40
2019-03-20T07:43:27.750Z,5.40
2019-03-20T07:44:27.734Z,5.70
2019-03-20T07:45:27.692Z,4.90
2019-03-20T07:46:27.694Z,5.30
2019-03-20T07:47:27.685Z,4.80
2019-03-20T07:48:27.665Z,5.30
2019-03-20T07:49:27.698Z,5.40
2019-03-20T07:50:27.658Z,4.90
2019-03-20T07:51:27.635Z,5.70
2019-03-20T07:52:27.616Z,5.60
2019-03-20T07:53:27.607Z,5.20
2019-03-20T07:54:27.596Z,4.90
2019-03-20T07:55:27.597Z,5.20
2019-03-20T07:56:27.621Z,5.40
2019-03-20T07:57:27.565Z,5.10
2019-03-20T07:58:27.564Z,5.60
2019-03-20T07:59:27.547Z,5.30
2019-03-20T08:00:27.541Z,5.30
2019-03-20T08:01:27.545Z,4.70
2019-03-20T08:02:27.510Z,5.10
2019-03-20T08:03:27.499Z,4.40
2019-03-20T08:04:27.494Z,5.30
2019-03-20T08:05:29.440Z,4.90
2019-03-20T08:06:27.482Z,4.60
2019-03-20T08:07:27.535Z,5.20
2019-03-20T08:08:27.478Z,5.00
2019-03-20T08:09:27.451Z,5.30
2019-03-20T08:10:27.428Z,4.70
2019-03-20T08:11:27.565Z,4.70
2019-03-20T08:12:27.402Z,5.30
2019-03-20T08:13:27.395Z,4.90
2019-03-20T08:14:27.381Z,4.30
2019-03-20T08:15:27.374Z,4.30
2019-03-20T08:16:27.393Z,4.60
2019-03-20T08:17:27.348Z,4.90
2019-03-20T08:18:27.338Z,4.90
2019-03-20T08:19:27.327Z,4.80
2019-03-20T08:20:27.317Z,4.70
2019-03-20T08:21:27.315Z,4.70
2019-03-20T08:22:27.311Z,4.70
2019-03-20T08:23:27.289Z,4.50
2019-03-20T08:24:27.297Z,5.00
2019-03-20T08:25:27.267Z,4.10
2019-03-20T08:26:27.272Z,4.10
2019-03-20T08:27:27.248Z,4.20
2019-03-20T08:28:27.234Z,3.90
2019-03-20T08:29:27.234Z,3.80
2019-03-20T08:30:27.216Z,4.40
2019-03-20T08:31:27.218Z,4.10
2019-03-20T08:32:27.190Z,4.10
2019-03-20T08:33:27.256Z,3.60
2019-03-20T08:34:27.167Z,3.50
2019-03-20T08:35:27.156Z,3.40
2019-03-20T08:36:27.150Z,3.30
2019-03-20T08:37:27.132Z,3.50
2019-03-20T08:38:27.130Z,3.10
2019-03-20T08:39:27.117Z,2.80
2019-03-20T08:40:27.131Z,2.80
2019-03-20T08:41:27.119Z,2.60
2019-03-20T08:42:41.688Z,2.30
2019-03-20T08:43:27.085Z,2.50
2019-03-20T08:44:27.076Z,2.40
2019-03-20T08:45:27.064Z,2.20
2019-03-20T08:46:27.064Z,2.30
2019-03-20T08:47:48.072Z,2.40
2019-03-20T08:48:27.050Z,2.90
2019-03-20T08:49:27.018Z,2.90
2019-03-20T08:50:26.994Z,2.80
2019-03-20T08:51:26.993Z,2.40
2019-03-20T08:52:26.979Z,2.20
2019-03-20T08:53:26.978Z,2.70
2019-03-20T08:54:26.948Z,2.50
2019-03-20T08:55:26.945Z,3.10
2019-03-20T08:56:26.956Z,2.60
2019-03-20T08:57:26.941Z,3.10
2019-03-20T08:58:47.937Z,2.70
2019-03-20T08:59:26.963Z,2.80
2019-03-20T09:00:26.921Z,2.40
2019-03-20T09:01:28.960Z,2.70
2019-03-20T09:02:26.864Z,2.50
2019-03-20T09:03:27.007Z,2.60
2019-03-20T09:04:26.844Z,2.90
2019-03-20T09:05:26.841Z,2.90
2019-03-20T09:06:26.823Z,2.80
2019-03-20T09:07:26.806Z,3.00
2019-03-20T09:08:29.601Z,2.80
2019-03-20T09:09:26.784Z,2.80
2019-03-20T09:10:26.841Z,2.50
2019-03-20T09:11:26.770Z,2.60
2019-03-20T09:12:26.769Z,2.90
2019-03-20T09:13:26.742Z,2.90
2019-03-20T09:14:26.792Z,2.80
2019-03-20T09:15:26.721Z,2.50
2019-03-20T09:16:27.385Z,2.50
2019-03-20T09:17:26.743Z,2.40
2019-03-20T09:18:26.692Z,2.50
2019-03-20T09:19:26.678Z,2.10
2019-03-20T09:20:26.686Z,2.00
2019-03-20T09:21:26.687Z,2.10
2019-03-20T09:22:26.662Z,1.60
2019-03-20T09:23:26.677Z,1.80
2019-03-20T09:24:26.626Z,2.60
2019-03-20T09:25:26.618Z,2.80
2019-03-20T09:26:26.607Z,2.40
2019-03-20T09:27:26.610Z,2.60
2019-03-20T09:28:26.585Z,2.10
2019-03-20T09:29:35.634Z,2.40
2019-03-20T09:30:27.556Z,2.40
2019-03-20T09:31:26.544Z,2.50
2019-03-20T09:32:26.732Z,2.70
2019-03-20T09:33:26.540Z,2.90
2019-03-20T09:34:26.514Z,2.70
2019-03-20T09:35:26.552Z,2.10
2019-03-20T09:36:26.494Z,2.50
2019-03-20T09:37:26.517Z,1.80
2019-03-20T09:38:26.470Z,3.00
2019-03-20T09:39:26.474Z,1.80
2019-03-20T09:40:26.449Z,2.60
2019-03-20T09:41:26.437Z,3.90
2019-03-20T09:42:26.428Z,3.80
2019-03-20T09:43:26.419Z,2.10
2019-03-20T09:44:26.410Z,2.00
2019-03-20T09:45:26.394Z,1.70
2019-03-20T09:46:26.390Z,2.30
2019-03-20T09:47:26.395Z,2.30
2019-03-20T09:48:26.366Z,2.50
2019-03-20T09:49:26.370Z,2.30
2019-03-20T09:50:26.349Z,2.50
2019-03-20T09:51:26.343Z,2.00
2019-03-20T09:52:26.333Z,2.20
2019-03-20T09:53:26.316Z,2.00
2019-03-20T09:54:27.155Z,2.00
2019-03-20T09:55:26.293Z,2.00
2019-03-20T09:56:26.282Z,2.40
2019-03-20T09:57:26.288Z,2.70
2019-03-20T09:58:26.259Z,2.50
2019-03-20T09:59:26.252Z,2.70
2019-03-20T10:00:26.310Z,2.70
2019-03-20T10:01:26.235Z,2.30
2019-03-20T10:02:26.229Z,2.60
2019-03-20T10:03:26.220Z,2.10
2019-03-20T10:04:26.199Z,2.10
2019-03-20T10:05:26.187Z,2.00
2019-03-20T10:06:26.246Z,2.50
2019-03-20T10:07:26.178Z,2.30
2019-03-20T10:08:26.152Z,2.30
2019-03-20T10:09:26.173Z,2.00
2019-03-20T10:10:26.146Z,2.60
2019-03-20T10:11:26.136Z,2.20
2019-03-20T10:12:26.202Z,2.00
2019-03-20T10:13:26.115Z,2.00
2019-03-20T10:14:26.115Z,2.40
2019-03-20T10:15:26.120Z,2.70
2019-03-20T10:16:26.125Z,2.10
2019-03-20T10:17:26.092Z,2.10
2019-03-20T10:18:26.078Z,2.20
2019-03-20T10:19:26.062Z,1.70
2019-03-20T10:20:26.048Z,2.10
2019-03-20T10:21:26.015Z,2.10
2019-03-20T10:22:26.019Z,2.20
2019-03-20T10:23:26.003Z,2.20
2019-03-20T10:24:25.991Z,2.10
2019-03-20T10:25:26.000Z,2.30
2019-03-20T10:26:25.972Z,2.80
2019-03-20T10:27:26.009Z,2.40
2019-03-20T10:28:25.974Z,2.30
2019-03-20T10:29:25.939Z,2.20
2019-03-20T10:30:25.938Z,2.30
2019-03-20T10:31:25.924Z,2.20
2019-03-20T10:32:25.906Z,2.20
2019-03-20T10:33:25.915Z,2.20
2019-03-20T10:34:25.890Z,2.30
2019-03-20T10:35:25.873Z,2.40
2019-03-20T10:36:25.883Z,2.00
2019-03-20T10:37:25.866Z,2.20
2019-03-20T10:38:25.866Z,2.10
2019-03-20T10:39:25.831Z,2.20
2019-03-20T10:40:25.824Z,2.00
2019-03-20T10:41:25.856Z,1.90
2019-03-20T10:42:25.819Z,2.20
2019-03-20T10:43:25.815Z,1.90
2019-03-20T10:44:25.802Z,1.90
2019-03-20T10:45:25.797Z,2.30
2019-03-20T10:46:25.805Z,2.20
2019-03-20T10:47:25.782Z,2.10
2019-03-20T10:48:25.754Z,2.00
2019-03-20T10:49:25.746Z,2.20
2019-03-20T10:50:25.740Z,2.00
2019-03-20T10:51:25.724Z,2.10
2019-03-20T10:52:25.712Z,2.10
2019-03-20T10:53:25.894Z,2.40
2019-03-20T10:54:25.691Z,2.00
2019-03-20T10:55:25.682Z,2.10
2019-03-20T10:56:25.675Z,2.00
2019-03-20T10:57:25.668Z,2.30
2019-03-20T10:58:25.671Z,2.40
2019-03-20T10:59:25.636Z,2.30
2019-03-20T11:00:25.667Z,2.40
2019-03-20T11:01:25.620Z,2.50
2019-03-20T11:02:25.609Z,2.10
2019-03-20T11:03:25.638Z,2.00
2019-03-20T11:04:25.596Z,2.30
2019-03-20T11:05:25.618Z,2.20
2019-03-20T11:06:25.568Z,2.10
2019-03-20T11:07:25.563Z,2.60
2019-03-20T11:08:25.552Z,2.00
2019-03-20T11:09:25.531Z,2.20
2019-03-20T11:10:25.521Z,2.20
2019-03-20T11:11:27.373Z,2.10
2019-03-20T11:12:25.604Z,2.10
2019-03-20T11:13:25.569Z,2.80
2019-03-20T11:14:25.592Z,2.10
2019-03-20T11:15:25.477Z,2.60
2019-03-20T11:16:25.465Z,2.10
2019-03-20T11:17:25.446Z,2.80
2019-03-20T11:18:25.467Z,2.20
2019-03-20T11:19:25.426Z,2.90
2019-03-20T11:20:25.417Z,2.30
2019-03-20T11:21:25.425Z,2.90
2019-03-20T11:22:25.412Z,2.30
2019-03-20T11:23:25.400Z,2.20
2019-03-20T11:24:25.375Z,2.40
2019-03-20T11:25:25.369Z,2.20
2019-03-20T11:26:25.355Z,2.30
2019-03-20T11:27:27.594Z,2.00
2019-03-20T11:28:25.335Z,2.30
2019-03-20T11:29:25.405Z,2.10
2019-03-20T11:30:25.311Z,2.20
2019-03-20T11:31:25.297Z,2.00
2019-03-20T11:32:25.291Z,2.30
2019-03-20T11:33:25.286Z,2.10
2019-03-20T11:34:25.271Z,2.00
2019-03-20T11:35:25.255Z,2.30
2019-03-20T11:36:25.287Z,2.30
2019-03-20T11:37:25.234Z,2.30
2019-03-20T11:38:25.241Z,2.10
2019-03-20T11:39:29.551Z,2.20
2019-03-20T11:40:25.203Z,1.80
2019-03-20T11:41:25.228Z,2.20
2019-03-20T11:42:25.184Z,2.00
2019-03-20T11:43:25.183Z,2.20
2019-03-20T11:44:25.165Z,1.80
2019-03-20T11:45:25.205Z,2.00
2019-03-20T11:46:25.147Z,2.60
2019-03-20T11:47:25.131Z,2.40
2019-03-20T11:48:25.118Z,2.10
2019-03-20T11:49:25.110Z,2.20
2019-03-20T11:50:25.116Z,1.90
2019-03-20T11:51:25.122Z,1.90
2019-03-20T11:52:25.098Z,2.20
2019-03-20T11:53:25.062Z,2.00
2019-03-20T11:54:25.054Z,2.10
2019-03-20T11:55:25.045Z,2.10
2019-03-20T11:56:25.042Z,2.00
2019-03-20T11:57:25.026Z,2.10
2019-03-20T11:58:25.007Z,2.10
2019-03-20T11:59:25.006Z,2.30
2019-03-20T12:00:24.988Z,2.20
2019-03-20T12:01:24.983Z,2.60
2019-03-20T12:02:28.302Z,2.40
2019-03-20T12:03:24.956Z,2.50
2019-03-20T12:04:24.969Z,2.40
2019-03-20T12:05:24.940Z,2.00
2019-03-20T12:06:24.935Z,2.20
2019-03-20T12:07:24.918Z,2.20
2019-03-20T12:08:24.909Z,2.30
2019-03-20T12:09:24.913Z,2.40
2019-03-20T12:10:24.917Z,2.50
2019-03-20T12:11:24.878Z,2.70
2019-03-20T12:12:24.875Z,2.60
2019-03-20T12:13:24.890Z,2.30
2019-03-20T12:14:24.853Z,2.20
2019-03-20T12:15:24.841Z,2.40
2019-03-20T12:16:24.837Z,2.10
2019-03-20T12:17:24.813Z,2.20
2019-03-20T12:18:24.798Z,2.20
2019-03-20T12:19:24.814Z,2.10
2019-03-20T12:20:24.780Z,2.10
2019-03-20T12:21:24.773Z,2.10
2019-03-20T12:22:24.774Z,2.20
2019-03-20T12:23:24.781Z,2.10
2019-03-20T12:24:24.756Z,2.10
2019-03-20T12:25:24.728Z,2.50
2019-03-20T12:26:24.716Z,2.60
2019-03-20T12:27:24.711Z,2.40
2019-03-20T12:28:24.740Z,1.90
2019-03-20T12:29:24.720Z,2.30
2019-03-20T12:30:24.725Z,2.20
2019-03-20T12:31:24.665Z,2.10
2019-03-20T12:32:24.687Z,2.70
2019-03-20T12:33:24.652Z,2.50
2019-03-20T12:34:24.645Z,2.70
2019-03-20T12:35:24.656Z,2.40
2019-03-20T12:36:24.612Z,3.30
2019-03-20T12:37:24.602Z,2.60
2019-03-20T12:38:24.597Z,2.80
2019-03-20T12:39:24.588Z,2.20
2019-03-20T12:40:24.587Z,2.90
2019-03-20T12:41:24.561Z,2.60
2019-03-20T12:42:24.634Z,2.30
2019-03-20T12:43:24.556Z,2.50
2019-03-20T12:44:24.539Z,2.20
2019-03-20T12:45:24.580Z,2.00
2019-03-20T12:46:24.520Z,2.20
2019-03-20T12:47:24.528Z,1.90
2019-03-20T12:48:24.540Z,2.10
2019-03-20T12:49:24.553Z,1.90
2019-03-20T12:50:24.709Z,2.20
2019-03-20T12:51:24.508Z,2.20
2019-03-20T12:52:24.456Z,2.50
2019-03-20T12:53:24.570Z,2.30
2019-03-20T12:54:24.438Z,2.50
2019-03-20T12:55:24.436Z,2.10
2019-03-20T12:56:24.406Z,2.40
2019-03-20T12:57:24.395Z,1.90
2019-03-20T12:58:24.386Z,2.10
2019-03-20T12:59:24.383Z,3.30
2019-03-20T13:00:27.175Z,3.20
2019-03-20T13:01:24.428Z,2.40
2019-03-20T13:02:24.367Z,2.40
2019-03-20T13:03:24.333Z,2.70
2019-03-20T13:04:24.321Z,2.40
2019-03-20T13:05:24.302Z,2.00
2019-03-20T13:06:24.297Z,2.50
2019-03-20T13:07:24.297Z,2.50
2019-03-20T13:08:24.268Z,2.20
2019-03-20T13:09:24.273Z,2.50
2019-03-20T13:10:24.250Z,2.80
2019-03-20T13:11:24.253Z,2.40
2019-03-20T13:12:24.224Z,2.50
2019-03-20T13:13:24.217Z,2.50
2019-03-20T13:14:24.208Z,2.70
2019-03-20T13:15:24.199Z,2.70
2019-03-20T13:16:24.189Z,3.00
2019-03-20T13:17:24.179Z,2.90
2019-03-20T13:18:24.183Z,2.30